Time;durP1;ratioP1;P1;durP2;ratioP2;P2;SDS_P1;SDS_P2;PMS_P1;PMS_P2;Temp;Humidity;BMP_temperature;BMP_pressure;BME280_temperature;BME280_humidity;BME280_pressure;Samples;Min_cycle;Max_cycle;Signal;HPM_P1;HPM_P2
2021/03/08 00:01:18;;;;;;;42.53;23.25;;;;;;;;;;10277152;28;20345;-58
2021/03/08 00:06:15;;;;;;;38.08;21.05;;;;;;;;;;10277440;28;20306;-58
2021/03/08 00:11:13;;;;;;;32.60;19.40;;;;;;;;;;10277413;28;20430;-58
2021/03/08 00:16:10;;;;;;;27.58;15.88;;;;;;;;;;10277020;28;20045;-59
2021/03/08 00:21:08;;;;;;;44.90;24.48;;;;;;;;;;10292352;28;20071;-55
2021/03/08 00:26:06;;;;;;;47.20;23.27;;;;;;;;;;10287183;28;20139;-58
2021/03/08 00:31:03;;;;;;;51.88;24.70;;;;;;;;;;10300627;28;20091;-57
2021/03/08 00:36:01;;;;;;;56.17;26.25;;;;;;;;;;10282426;28;20068;-58
2021/03/08 00:40:59;;;;;;;48.42;23.52;;;;;;;;;;10280836;28;20076;-58
2021/03/08 00:45:56;;;;;;;28.75;16.45;;;;;;;;;;10300781;28;20454;-58
2021/03/08 00:50:54;;;;;;;26.98;17.35;;;;;;;;;;10284423;28;20044;-57
2021/03/08 00:55:53;;;;;;;38.88;20.13;;;;;;;;;;10276178;28;20049;-58
2021/03/08 01:00:52;;;;;;;27.92;17.05;;;;;;;;;;10315301;28;20052;-58
2021/03/08 01:05:50;;;;;;;27.83;16.60;;;;;;;;;;10325074;28;20083;-58
2021/03/08 01:10:57;;;;;;;21.02;13.95;;;;;;;;;;10285339;28;20507;-58
2021/03/08 01:16:03;;;;;;;23.58;15.57;;;;;;;;;;10282532;28;20545;-58
2021/03/08 01:21:01;;;;;;;18.88;13.10;;;;;;;;;;10283870;28;20048;-55
2021/03/08 01:25:58;;;;;;;34.83;21.98;;;;;;;;;;10283520;28;20084;-58
2021/03/08 01:30:55;;;;;;;15.68;13.23;;;;;;;;;;10283045;28;20067;-56
2021/03/08 01:35:54;;;;;;;13.25;11.00;;;;;;;;;;10283627;28;20521;-55
2021/03/08 01:40:52;;;;;;;14.88;11.85;;;;;;;;;;10283113;28;20037;-56
2021/03/08 01:45:50;;;;;;;12.07;10.43;;;;;;;;;;10283085;28;20080;-56
2021/03/08 01:50:48;;;;;;;20.13;12.57;;;;;;;;;;10282601;28;20048;-55
2021/03/08 01:55:47;;;;;;;14.63;10.90;;;;;;;;;;10282336;28;20521;-56
2021/03/08 02:00:44;;;;;;;13.85;10.30;;;;;;;;;;10282474;28;20053;-57
2021/03/08 02:05:47;;;;;;;16.67;12.15;;;;;;;;;;10281879;28;20073;-56
2021/03/08 02:10:45;;;;;;;14.65;11.95;;;;;;;;;;10281875;28;20498;-56
2021/03/08 02:15:50;;;;;;;23.75;19.63;;;;;;;;;;10280937;28;20158;-55
2021/03/08 02:20:58;;;;;;;24.08;17.40;;;;;;;;;;10298871;28;20072;-56
2021/03/08 02:26:08;;;;;;;24.90;21.65;;;;;;;;;;10297972;28;20072;-57
2021/03/08 02:31:09;;;;;;;17.42;12.70;;;;;;;;;;10304087;28;20465;-57
2021/03/08 02:36:08;;;;;;;21.13;18.95;;;;;;;;;;10291411;28;20413;-56
2021/03/08 02:41:08;;;;;;;25.92;23.10;;;;;;;;;;10321688;28;20419;-58
2021/03/08 02:46:06;;;;;;;23.25;19.90;;;;;;;;;;10321098;28;20079;-56
2021/03/08 02:51:06;;;;;;;15.23;13.32;;;;;;;;;;10283320;28;20049;-55
2021/03/08 02:56:06;;;;;;;32.30;28.35;;;;;;;;;;10280248;28;20076;-58
2021/03/08 03:01:05;;;;;;;21.30;18.05;;;;;;;;;;10280115;28;20326;-58
2021/03/08 03:06:03;;;;;;;15.48;12.75;;;;;;;;;;10280101;28;20455;-56
2021/03/08 03:11:01;;;;;;;13.98;11.60;;;;;;;;;;10279774;28;20455;-56
2021/03/08 03:15:59;;;;;;;16.75;14.35;;;;;;;;;;10277472;28;20052;-57
2021/03/08 03:20:57;;;;;;;13.93;10.60;;;;;;;;;;10279282;28;20506;-57
2021/03/08 03:25:56;;;;;;;13.02;10.68;;;;;;;;;;10278505;28;20076;-57
2021/03/08 03:30:55;;;;;;;17.70;10.93;;;;;;;;;;10278497;28;20511;-54
2021/03/08 03:35:54;;;;;;;13.43;10.68;;;;;;;;;;10290875;28;20057;-54
2021/03/08 03:40:51;;;;;;;14.45;10.02;;;;;;;;;;10301118;28;20418;-57
2021/03/08 03:45:49;;;;;;;12.05;9.70;;;;;;;;;;10318995;28;20525;-52
2021/03/08 03:50:48;;;;;;;13.68;10.52;;;;;;;;;;10318597;28;20041;-57
2021/03/08 03:55:45;;;;;;;14.10;9.75;;;;;;;;;;10278291;28;20432;-57
2021/03/08 04:00:45;;;;;;;13.23;10.15;;;;;;;;;;10277532;28;20064;-54
2021/03/08 04:05:43;;;;;;;12.68;10.07;;;;;;;;;;10277558;28;20083;-57
2021/03/08 04:10:41;;;;;;;15.05;9.90;;;;;;;;;;10277359;28;20524;-56
2021/03/08 04:15:39;;;;;;;13.20;9.73;;;;;;;;;;10277248;28;20045;-55
2021/03/08 04:20:36;;;;;;;15.45;11.48;;;;;;;;;;10276646;28;20083;-57
2021/03/08 04:25:34;;;;;;;16.30;10.43;;;;;;;;;;10277212;28;20080;-57
2021/03/08 04:30:33;;;;;;;14.30;11.02;;;;;;;;;;10276315;28;20549;-58
2021/03/08 04:35:31;;;;;;;12.85;10.40;;;;;;;;;;10275474;28;20077;-56
2021/03/08 04:40:28;;;;;;;13.18;10.50;;;;;;;;;;10296366;28;20041;-55
2021/03/08 04:45:26;;;;;;;15.13;10.85;;;;;;;;;;10275878;28;20514;-52
2021/03/08 04:50:24;;;;;;;12.77;10.90;;;;;;;;;;10293143;28;20095;-56
2021/03/08 04:55:23;;;;;;;14.50;11.38;;;;;;;;;;10282810;28;20041;-57
2021/03/08 05:00:21;;;;;;;14.98;10.68;;;;;;;;;;10285461;28;20418;-57
2021/03/08 05:05:21;;;;;;;14.45;11.73;;;;;;;;;;10275398;28;20522;-58
2021/03/08 05:10:20;;;;;;;15.82;11.18;;;;;;;;;;10275152;28;20044;-57
2021/03/08 05:15:18;;;;;;;16.52;12.13;;;;;;;;;;10274575;28;20064;-56
2021/03/08 05:20:16;;;;;;;13.15;10.40;;;;;;;;;;10290873;28;20079;-57
2021/03/08 05:25:13;;;;;;;16.40;11.10;;;;;;;;;;10296020;28;20072;-57
2021/03/08 05:30:15;;;;;;;20.52;14.02;;;;;;;;;;10274810;28;20053;-57
2021/03/08 05:35:32;;;;;;;15.05;12.52;;;;;;;;;;10303123;28;20417;-56
2021/03/08 05:40:33;;;;;;;22.65;16.55;;;;;;;;;;10293488;28;20099;-56
2021/03/08 05:45:33;;;;;;;27.92;18.40;;;;;;;;;;10290929;28;20087;-56
2021/03/08 05:50:57;;;;;;;33.67;27.83;;;;;;;;;;10281228;28;20536;-57
2021/03/08 05:56:12;;;;;;;19.60;15.20;;;;;;;;;;10279914;28;20162;-58
2021/03/08 06:01:17;;;;;;;38.72;28.25;;;;;;;;;;10280294;28;20499;-56
2021/03/08 06:06:30;;;;;;;23.58;16.92;;;;;;;;;;10281891;28;20506;-58
2021/03/08 06:11:32;;;;;;;26.15;21.92;;;;;;;;;;10293474;28;20060;-57
2021/03/08 06:16:32;;;;;;;27.48;20.63;;;;;;;;;;10291731;28;20518;-58
2021/03/08 06:21:31;;;;;;;47.03;38.33;;;;;;;;;;10290462;28;20064;-56
2021/03/08 06:26:29;;;;;;;20.98;14.57;;;;;;;;;;10302439;28;20076;-58
2021/03/08 06:31:27;;;;;;;24.10;16.95;;;;;;;;;;10317104;28;20080;-59
2021/03/08 06:36:29;;;;;;;19.10;14.57;;;;;;;;;;10316876;28;20079;-57
2021/03/08 06:41:26;;;;;;;17.20;13.25;;;;;;;;;;10317554;28;20064;-58
2021/03/08 06:46:24;;;;;;;23.48;16.85;;;;;;;;;;10318802;28;20079;-58
2021/03/08 06:51:21;;;;;;;20.63;15.02;;;;;;;;;;10321155;28;20075;-59
2021/03/08 06:56:20;;;;;;;21.98;18.10;;;;;;;;;;10321384;28;20080;-59
2021/03/08 07:01:31;;;;;;;22.70;17.73;;;;;;;;;;10319067;28;20426;-59
2021/03/08 07:06:43;;;;;;;26.38;19.30;;;;;;;;;;10320543;28;20080;-59
2021/03/08 07:11:41;;;;;;;23.60;18.23;;;;;;;;;;10320959;28;20044;-57
2021/03/08 07:16:39;;;;;;;28.15;22.83;;;;;;;;;;10319317;28;20493;-59
2021/03/08 07:21:36;;;;;;;27.65;17.67;;;;;;;;;;10320096;28;20036;-59
2021/03/08 07:26:34;;;;;;;29.63;20.00;;;;;;;;;;10320158;28;20079;-59
2021/03/08 07:31:36;;;;;;;64.57;40.80;;;;;;;;;;10318218;28;20075;-58
2021/03/08 07:36:34;;;;;;;49.20;32.22;;;;;;;;;;10312901;28;20310;-56
2021/03/08 07:41:32;;;;;;;25.77;17.63;;;;;;;;;;10315118;28;20079;-59
2021/03/08 07:46:30;;;;;;;28.85;20.00;;;;;;;;;;10315125;28;20387;-59
2021/03/08 07:51:29;;;;;;;47.83;32.35;;;;;;;;;;10315449;28;20514;-60
2021/03/08 07:56:26;;;;;;;33.17;23.70;;;;;;;;;;10318843;28;20068;-59
2021/03/08 08:01:25;;;;;;;25.38;17.50;;;;;;;;;;10318539;28;20045;-60
2021/03/08 08:06:23;;;;;;;26.90;18.42;;;;;;;;;;10318195;28;20076;-58
2021/03/08 08:11:22;;;;;;;27.98;20.60;;;;;;;;;;10317383;28;20436;-58
2021/03/08 08:16:22;;;;;;;23.30;17.88;;;;;;;;;;10318094;28;20056;-58
2021/03/08 08:21:21;;;;;;;20.48;16.02;;;;;;;;;;10317981;28;20048;-58
2021/03/08 08:26:19;;;;;;;23.55;16.30;;;;;;;;;;10317544;28;20087;-58
2021/03/08 08:31:17;;;;;;;22.42;16.88;;;;;;;;;;10317036;28;20053;-59
2021/03/08 08:36:16;;;;;;;17.38;13.88;;;;;;;;;;10317781;28;20071;-58
2021/03/08 08:41:18;;;;;;;28.75;18.80;;;;;;;;;;10316749;28;20543;-59
2021/03/08 08:46:23;;;;;;;20.50;13.95;;;;;;;;;;10316991;28;20088;-58
2021/03/08 08:51:21;;;;;;;;;;;;;;;;;;10317671;28;20409;-59
2021/03/08 08:56:18;;;;;;;22.65;17.38;;;;;;;;;;10317307;28;19920;-59
2021/03/08 09:01:22;;;;;;;23.63;17.88;;;;;;;;;;10316973;28;20075;-57
2021/03/08 09:06:43;;;;;;;23.77;18.00;;;;;;;;;;10316556;28;20087;-58
2021/03/08 09:11:45;;;;;;;20.40;15.68;;;;;;;;;;10316972;28;20048;-59
2021/03/08 09:16:42;;;;;;;19.83;15.63;;;;;;;;;;10316572;28;20068;-59
2021/03/08 09:21:40;;;;;;;19.90;14.57;;;;;;;;;;10316865;28;20486;-58
2021/03/08 09:26:38;;;;;;;27.50;19.25;;;;;;;;;;10324913;28;20089;-58
2021/03/08 09:31:36;;;;;;;21.13;16.58;;;;;;;;;;10323941;28;20065;-58
2021/03/08 09:36:37;;;;;;;17.02;14.52;;;;;;;;;;10324747;28;20045;-58
2021/03/08 09:41:35;;;;;;;20.88;15.45;;;;;;;;;;10324582;28;20055;-58
2021/03/08 09:46:34;;;;;;;24.35;17.67;;;;;;;;;;10323797;28;20083;-59
2021/03/08 09:51:32;;;;;;;25.33;18.73;;;;;;;;;;10321818;28;20051;-59
2021/03/08 09:56:29;;;;;;;36.20;27.02;;;;;;;;;;10323815;28;20052;-59
2021/03/08 10:01:27;;;;;;;18.80;15.13;;;;;;;;;;10323226;28;20071;-58
2021/03/08 10:06:26;;;;;;;70.63;37.05;;;;;;;;;;10323091;28;20498;-59
2021/03/08 10:11:24;;;;;;;26.35;20.58;;;;;;;;;;10322882;28;20072;-58
2021/03/08 10:16:22;;;;;;;26.48;16.55;;;;;;;;;;10322591;28;20517;-59
2021/03/08 10:21:20;;;;;;;19.92;15.73;;;;;;;;;;10322626;28;20055;-59
2021/03/08 10:26:19;;;;;;;19.48;15.73;;;;;;;;;;10322232;28;20498;-59
2021/03/08 10:31:17;;;;;;;14.70;12.75;;;;;;;;;;10321698;28;20052;-58
2021/03/08 10:36:16;;;;;;;23.38;15.73;;;;;;;;;;10320604;28;20520;-58
2021/03/08 10:41:13;;;;;;;19.90;13.70;;;;;;;;;;10321754;28;20079;-58
2021/03/08 10:46:12;;;;;;;23.33;18.00;;;;;;;;;;10321633;28;20357;-58
2021/03/08 10:51:18;;;;;;;18.58;14.25;;;;;;;;;;10321374;28;20071;-57
2021/03/08 10:56:19;;;;;;;24.98;17.70;;;;;;;;;;10321200;28;20083;-58
2021/03/08 11:01:17;;;;;;;21.77;12.93;;;;;;;;;;10320976;28;20083;-58
2021/03/08 11:06:16;;;;;;;25.15;14.35;;;;;;;;;;10320905;28;20072;-58
2021/03/08 11:11:16;;;;;;;16.45;10.82;;;;;;;;;;10319604;28;20049;-58
2021/03/08 11:16:15;;;;;;;15.07;11.98;;;;;;;;;;10320598;28;20487;-58
2021/03/08 11:21:20;;;;;;;37.17;25.25;;;;;;;;;;10320236;28;20577;-58
2021/03/08 11:26:17;;;;;;;;;;;;;;;;;;10320524;28;20080;-59
2021/03/08 11:31:21;;;;;;;16.88;11.82;;;;;;;;;;10319629;28;19963;-58
2021/03/08 11:36:32;;;;;;;16.23;13.23;;;;;;;;;;10319928;28;20048;-58
2021/03/08 11:41:30;;;;;;;18.05;12.57;;;;;;;;;;10319507;28;20492;-58
2021/03/08 11:46:27;;;;;;;19.23;13.75;;;;;;;;;;10318862;28;20072;-58
2021/03/08 11:51:26;;;;;;;16.70;12.93;;;;;;;;;;10318894;28;20048;-58
2021/03/08 11:56:26;;;;;;;17.02;12.60;;;;;;;;;;10318908;28;20045;-58
2021/03/08 12:01:23;;;;;;;16.50;11.35;;;;;;;;;;10318573;28;20408;-58
2021/03/08 12:06:21;;;;;;;20.27;14.55;;;;;;;;;;10318380;28;20072;-58
2021/03/08 12:11:18;;;;;;;19.40;13.95;;;;;;;;;;10318027;28;20067;-58
2021/03/08 12:16:17;;;;;;;15.25;11.40;;;;;;;;;;10318554;28;20426;-58
2021/03/08 12:21:14;;;;;;;23.13;16.98;;;;;;;;;;10318544;28;20494;-58
2021/03/08 12:26:12;;;;;;;32.88;20.13;;;;;;;;;;10318103;28;20453;-57
2021/03/08 12:31:10;;;;;;;20.98;13.52;;;;;;;;;;10317136;28;20083;-56
2021/03/08 12:36:09;;;;;;;30.88;20.30;;;;;;;;;;10317791;28;20521;-58
2021/03/08 12:41:13;;;;;;;16.47;13.73;;;;;;;;;;10317415;28;20055;-57
2021/03/08 12:46:12;;;;;;;37.08;24.55;;;;;;;;;;10317318;28;20145;-58
2021/03/08 12:51:10;;;;;;;47.83;27.30;;;;;;;;;;10317247;28;20041;-58
2021/03/08 12:56:08;;;;;;;39.65;23.90;;;;;;;;;;10316490;28;20490;-58
2021/03/08 13:01:05;;;;;;;21.85;13.25;;;;;;;;;;10316783;28;20537;-57
2021/03/08 13:06:03;;;;;;;59.20;29.23;;;;;;;;;;10316841;28;20076;-58
2021/03/08 13:11:01;;;;;;;27.98;17.20;;;;;;;;;;10316165;28;20037;-55
2021/03/08 13:15:58;;;;;;;30.55;18.23;;;;;;;;;;10316909;28;20099;-54
2021/03/08 13:20:56;;;;;;;53.00;30.13;;;;;;;;;;10316502;28;20421;-55
2021/03/08 13:25:53;;;;;;;32.22;22.33;;;;;;;;;;10315547;28;20096;-56
2021/03/08 13:30:51;;;;;;;24.52;16.60;;;;;;;;;;10315944;28;20048;-53
2021/03/08 13:35:49;;;;;;;27.83;19.02;;;;;;;;;;10316430;28;20055;-54
2021/03/08 13:40:46;;;;;;;25.08;17.52;;;;;;;;;;10316097;28;20044;-53
2021/03/08 13:45:43;;;;;;;37.00;19.23;;;;;;;;;;10315986;28;20080;-52
2021/03/08 13:50:41;;;;;;;32.45;18.33;;;;;;;;;;10315938;28;20040;-55
2021/03/08 13:55:39;;;;;;;27.48;16.67;;;;;;;;;;10315971;28;20053;-51
2021/03/08 14:00:36;;;;;;;22.70;15.80;;;;;;;;;;10315019;28;20428;-53
2021/03/08 14:05:33;;;;;;;35.05;22.60;;;;;;;;;;10315605;28;20503;-55
2021/03/08 14:10:31;;;;;;;27.25;16.52;;;;;;;;;;10319638;28;20048;-53
2021/03/08 14:15:29;;;;;;;21.38;15.32;;;;;;;;;;10321807;28;20067;-56
2021/03/08 14:20:26;;;;;;;22.45;13.85;;;;;;;;;;10322856;28;20049;-54
2021/03/08 14:25:23;;;;;;;24.75;14.05;;;;;;;;;;10322153;28;20068;-55
2021/03/08 14:30:22;;;;;;;24.83;17.42;;;;;;;;;;10321386;28;20517;-55
2021/03/08 14:35:20;;;;;;;27.60;17.77;;;;;;;;;;10321801;28;20509;-56
2021/03/08 14:40:18;;;;;;;25.17;16.45;;;;;;;;;;10320923;28;20036;-53
2021/03/08 14:45:16;;;;;;;25.83;18.42;;;;;;;;;;10321617;28;20045;-55
2021/03/08 14:50:16;;;;;;;37.70;21.50;;;;;;;;;;10321311;28;20040;-56
2021/03/08 14:55:14;;;;;;;40.40;22.02;;;;;;;;;;10321293;28;20044;-55
2021/03/08 15:00:12;;;;;;;37.17;22.42;;;;;;;;;;10320997;28;20036;-55
2021/03/08 15:05:10;;;;;;;47.60;26.40;;;;;;;;;;10320220;28;20075;-57
2021/03/08 15:10:09;;;;;;;53.42;30.65;;;;;;;;;;10319530;28;20083;-54
2021/03/08 15:15:08;;;;;;;59.33;37.22;;;;;;;;;;10320449;28;20044;-56
2021/03/08 15:20:06;;;;;;;83.50;42.15;;;;;;;;;;10318658;28;20037;-55
2021/03/08 15:25:04;;;;;;;112.28;57.08;;;;;;;;;;10319904;28;20523;-55
2021/03/08 15:30:03;;;;;;;158.50;85.78;;;;;;;;;;10318480;28;20087;-54
2021/03/08 15:35:00;;;;;;;132.00;73.85;;;;;;;;;;10318767;28;20048;-56
2021/03/08 15:40:06;;;;;;;58.92;40.03;;;;;;;;;;10318495;28;20087;-55
2021/03/08 15:45:05;;;;;;;54.03;36.30;;;;;;;;;;10319578;28;20068;-56
2021/03/08 15:50:03;;;;;;;89.38;49.03;;;;;;;;;;10318924;28;20079;-54
2021/03/08 15:55:01;;;;;;;64.28;37.05;;;;;;;;;;10318786;28;20044;-55
2021/03/08 15:59:59;;;;;;;67.03;35.92;;;;;;;;;;10318432;28;20044;-57
2021/03/08 16:04:57;;;;;;;92.05;54.17;;;;;;;;;;10318429;28;20059;-55
2021/03/08 16:09:56;;;;;;;74.97;43.78;;;;;;;;;;10565565;22;20049;-60
2021/03/08 16:50:03;;;;;;;62.00;38.92;;;;;;;;;;10345844;28;20360;-51
2021/03/08 16:55:00;;;;;;;68.50;44.42;;;;;;;;;;10344473;28;20067;-58
2021/03/08 16:59:58;;;;;;;157.73;101.88;;;;;;;;;;10343957;28;20048;-58
2021/03/08 17:04:55;;;;;;;75.85;45.28;;;;;;;;;;10343904;28;20040;-59
2021/03/08 17:09:53;;;;;;;56.40;30.05;;;;;;;;;;10343964;28;20072;-59
2021/03/08 17:14:52;;;;;;;40.28;24.77;;;;;;;;;;10343676;28;20053;-58
2021/03/08 17:19:49;;;;;;;141.88;31.38;;;;;;;;;;10343556;28;20047;-58
2021/03/08 17:24:46;;;;;;;615.20;290.17;;;;;;;;;;10343370;28;20040;-59
2021/03/08 17:29:45;;;;;;;427.60;211.60;;;;;;;;;;10343641;28;20056;-58
2021/03/08 17:34:42;;;;;;;373.65;160.73;;;;;;;;;;10342938;28;20051;-57
2021/03/08 17:39:40;;;;;;;314.65;162.85;;;;;;;;;;10343479;28;20056;-58
2021/03/08 17:44:38;;;;;;;570.20;333.48;;;;;;;;;;10342757;28;20500;-56
2021/03/08 17:49:37;;;;;;;295.58;157.10;;;;;;;;;;10322527;28;20091;-58
2021/03/08 17:54:34;;;;;;;215.75;131.00;;;;;;;;;;10315150;28;20584;-57
2021/03/08 17:59:32;;;;;;;150.85;93.80;;;;;;;;;;10316076;28;20041;-57
2021/03/08 18:04:32;;;;;;;122.78;72.20;;;;;;;;;;10315249;28;20458;-57
2021/03/08 18:09:30;;;;;;;78.85;44.53;;;;;;;;;;10315177;28;20083;-53
2021/03/08 18:14:27;;;;;;;83.95;48.83;;;;;;;;;;10315335;28;20084;-57
2021/03/08 18:19:25;;;;;;;73.75;40.72;;;;;;;;;;10314695;28;20053;-59
2021/03/08 18:24:23;;;;;;;61.78;32.63;;;;;;;;;;10315206;28;20075;-61
2021/03/08 18:29:22;;;;;;;45.95;26.98;;;;;;;;;;10314289;28;20084;-60
2021/03/08 18:34:19;;;;;;;56.45;29.83;;;;;;;;;;10314873;28;20041;-61
2021/03/08 18:39:16;;;;;;;44.17;27.23;;;;;;;;;;10314711;28;20485;-60
2021/03/08 18:44:14;;;;;;;49.88;31.25;;;;;;;;;;10314525;28;20044;-61
2021/03/08 18:49:12;;;;;;;75.15;41.22;;;;;;;;;;10327818;27;20458;-62
2021/03/08 18:54:09;;;;;;;60.65;35.20;;;;;;;;;;10421326;27;20060;-65
2021/03/08 18:59:07;;;;;;;49.00;28.17;;;;;;;;;;10418482;27;20081;-62
2021/03/08 19:04:04;;;;;;;41.28;15.93;;;;;;;;;;10415062;27;20071;-63
2021/03/08 19:09:03;;;;;;;22.50;15.82;;;;;;;;;;10424073;27;20071;-63
2021/03/08 19:14:04;;;;;;;26.42;15.50;;;;;;;;;;10411412;27;20465;-56
2021/03/08 19:19:01;;;;;;;23.45;14.30;;;;;;;;;;10422855;27;20073;-58
2021/03/08 19:23:59;;;;;;;22.80;14.95;;;;;;;;;;10408347;27;20042;-57
2021/03/08 19:28:58;;;;;;;87.43;41.17;;;;;;;;;;10421067;27;20072;-56
2021/03/08 19:33:56;;;;;;;57.63;32.33;;;;;;;;;;10415092;27;20076;-58
2021/03/08 19:38:53;;;;;;;24.85;16.02;;;;;;;;;;10454261;27;20101;-62
2021/03/08 19:43:51;;;;;;;34.78;21.95;;;;;;;;;;10464590;27;20083;-63
2021/03/08 19:48:49;;;;;;;31.55;21.00;;;;;;;;;;10420663;27;20514;-61
2021/03/08 19:53:47;;;;;;;37.20;22.40;;;;;;;;;;10411878;27;20070;-62
2021/03/08 19:58:44;;;;;;;29.88;20.38;;;;;;;;;;10409301;27;20054;-61
2021/03/08 20:03:41;;;;;;;27.67;19.55;;;;;;;;;;10420275;27;20082;-61
2021/03/08 20:08:40;;;;;;;32.13;20.13;;;;;;;;;;10386083;27;20481;-61
2021/03/08 20:13:43;;;;;;;31.65;21.15;;;;;;;;;;10385151;27;20060;-61
2021/03/08 20:18:41;;;;;;;31.08;20.35;;;;;;;;;;10413009;27;20077;-62
2021/03/08 20:23:38;;;;;;;24.27;18.00;;;;;;;;;;10415249;27;20076;-62
2021/03/08 20:28:37;;;;;;;26.15;16.67;;;;;;;;;;10363132;27;20077;-61
2021/03/08 20:33:34;;;;;;;33.17;22.50;;;;;;;;;;10375870;27;20079;-61
2021/03/08 20:38:31;;;;;;;28.30;15.18;;;;;;;;;;10421200;27;20075;-60
2021/03/08 20:43:29;;;;;;;25.27;17.13;;;;;;;;;;10388681;27;20057;-60
2021/03/08 20:48:27;;;;;;;33.95;20.40;;;;;;;;;;10372419;27;20080;-61
2021/03/08 20:53:25;;;;;;;96.47;45.50;;;;;;;;;;10392134;27;20068;-62
2021/03/08 20:58:22;;;;;;;35.33;18.48;;;;;;;;;;10379236;27;20075;-61
2021/03/08 21:03:20;;;;;;;51.55;26.65;;;;;;;;;;10399544;27;20084;-62
2021/03/08 21:08:18;;;;;;;35.40;18.63;;;;;;;;;;10419010;27;20467;-62
2021/03/08 21:13:15;;;;;;;86.40;47.10;;;;;;;;;;10405327;27;20073;-62
2021/03/08 21:18:13;;;;;;;80.82;48.10;;;;;;;;;;10407162;27;20076;-62
2021/03/08 21:23:10;;;;;;;38.95;22.02;;;;;;;;;;10420884;27;20080;-62
2021/03/08 21:28:08;;;;;;;72.25;42.47;;;;;;;;;;10420925;27;20072;-62
2021/03/08 21:33:06;;;;;;;18.08;12.07;;;;;;;;;;10421485;27;20083;-62
2021/03/08 21:38:04;;;;;;;27.85;15.77;;;;;;;;;;10424352;27;20038;-61
2021/03/08 21:43:01;;;;;;;19.65;13.20;;;;;;;;;;10417043;27;20505;-61
2021/03/08 21:48:12;;;;;;;96.65;54.22;;;;;;;;;;10417738;27;20084;-61
2021/03/08 21:53:10;;;;;;;68.43;35.30;;;;;;;;;;10422304;27;20065;-61
2021/03/08 21:58:07;;;;;;;18.20;10.95;;;;;;;;;;10422703;27;20490;-60
2021/03/08 22:03:04;;;;;;;19.58;13.05;;;;;;;;;;10416588;27;20083;-60
2021/03/08 22:08:03;;;;;;;24.10;14.30;;;;;;;;;;10426141;27;20072;-62
2021/03/08 22:13:01;;;;;;;37.13;26.95;;;;;;;;;;10413111;27;20520;-61
2021/03/08 22:17:58;;;;;;;23.90;17.08;;;;;;;;;;10425051;27;20504;-62
2021/03/08 22:22:55;;;;;;;25.85;17.90;;;;;;;;;;10418132;27;20081;-62
2021/03/08 22:27:54;;;;;;;33.53;21.77;;;;;;;;;;10419957;27;20076;-62
2021/03/08 22:32:51;;;;;;;26.05;17.10;;;;;;;;;;10420347;27;20070;-62
2021/03/08 22:37:48;;;;;;;19.20;13.25;;;;;;;;;;10416159;27;20160;-62
2021/03/08 22:42:46;;;;;;;22.65;11.73;;;;;;;;;;10424739;27;20080;-61
2021/03/08 22:47:44;;;;;;;16.67;11.73;;;;;;;;;;10411056;27;20077;-62
2021/03/08 22:52:41;;;;;;;24.33;16.25;;;;;;;;;;10423234;27;20568;-61
2021/03/08 22:57:39;;;;;;;28.92;20.50;;;;;;;;;;10417279;27;20085;-61
2021/03/08 23:02:36;;;;;;;17.95;12.55;;;;;;;;;;10418138;27;20075;-62
2021/03/08 23:07:34;;;;;;;21.83;14.93;;;;;;;;;;10420597;27;20078;-62
2021/03/08 23:12:32;;;;;;;21.35;14.27;;;;;;;;;;10413179;27;20079;-61
2021/03/08 23:17:29;;;;;;;62.28;37.38;;;;;;;;;;10423746;27;20110;-62
2021/03/08 23:22:27;;;;;;;19.58;13.05;;;;;;;;;;10410083;27;20080;-62
2021/03/08 23:27:25;;;;;;;15.57;11.70;;;;;;;;;;10421167;27;20072;-61
2021/03/08 23:32:23;;;;;;;16.33;13.15;;;;;;;;;;10415140;27;20066;-61
2021/03/08 23:37:20;;;;;;;23.27;15.50;;;;;;;;;;10416907;27;20060;-62
2021/03/08 23:42:18;;;;;;;78.78;40.88;;;;;;;;;;10420236;27;20054;-61
2021/03/08 23:47:16;;;;;;;39.58;21.00;;;;;;;;;;10411061;27;20443;-62
2021/03/08 23:52:13;;;;;;;33.28;20.20;;;;;;;;;;10409526;27;20054;-63
2021/03/08 23:57:11;;;;;;;41.78;23.88;;;;;;;;;;10403499;27;20068;-61
